sensor_id;sensor_type;location;lat;lon;timestamp;P1;durP1;ratioP1;P2;durP2;ratioP2
76667;SDS011;65585;51.166;16.922;2023-03-08T00:01:57;15.18;;;7.78;;
76667;SDS011;65585;51.166;16.922;2023-03-08T00:04:24;16.83;;;8.32;;
76667;SDS011;65585;51.166;16.922;2023-03-08T00:06:50;14.65;;;7.32;;
76667;SDS011;65585;51.166;16.922;2023-03-08T00:09:19;13.40;;;7.70;;
76667;SDS011;65585;51.166;16.922;2023-03-08T00:11:45;21.38;;;9.23;;
76667;SDS011;65585;51.166;16.922;2023-03-08T00:14:12;15.18;;;8.52;;
76667;SDS011;65585;51.166;16.922;2023-03-08T00:16:38;17.02;;;8.02;;
76667;SDS011;65585;51.166;16.922;2023-03-08T00:19:05;14.60;;;8.00;;
76667;SDS011;65585;51.166;16.922;2023-03-08T00:21:31;12.90;;;6.95;;
76667;SDS011;65585;51.166;16.922;2023-03-08T00:24:00;11.50;;;8.18;;
76667;SDS011;65585;51.166;16.922;2023-03-08T00:29:38;16.17;;;7.07;;
76667;SDS011;65585;51.166;16.922;2023-03-08T00:32:07;12.43;;;6.32;;
76667;SDS011;65585;51.166;16.922;2023-03-08T00:34:37;14.07;;;6.53;;
76667;SDS011;65585;51.166;16.922;2023-03-08T00:37:05;13.73;;;7.47;;
76667;SDS011;65585;51.166;16.922;2023-03-08T00:39:32;13.15;;;6.15;;
76667;SDS011;65585;51.166;16.922;2023-03-08T00:41:58;11.23;;;6.50;;
76667;SDS011;65585;51.166;16.922;2023-03-08T00:44:28;11.43;;;6.40;;
76667;SDS011;65585;51.166;16.922;2023-03-08T00:46:54;12.23;;;6.07;;
76667;SDS011;65585;51.166;16.922;2023-03-08T00:49:21;10.30;;;5.45;;
76667;SDS011;65585;51.166;16.922;2023-03-08T00:51:47;11.57;;;6.85;;
76667;SDS011;65585;51.166;16.922;2023-03-08T00:54:17;14.90;;;7.45;;
76667;SDS011;65585;51.166;16.922;2023-03-08T00:56:43;12.93;;;6.15;;
76667;SDS011;65585;51.166;16.922;2023-03-08T00:59:12;12.23;;;7.00;;
76667;SDS011;65585;51.166;16.922;2023-03-08T01:01:38;12.43;;;6.20;;
76667;SDS011;65585;51.166;16.922;2023-03-08T01:04:05;9.77;;;5.25;;
76667;SDS011;65585;51.166;16.922;2023-03-08T01:06:33;12.02;;;6.00;;
76667;SDS011;65585;51.166;16.922;2023-03-08T01:09:04;10.82;;;5.25;;
76667;SDS011;65585;51.166;16.922;2023-03-08T01:11:34;9.40;;;5.43;;
76667;SDS011;65585;51.166;16.922;2023-03-08T01:14:09;11.23;;;6.30;;
76667;SDS011;65585;51.166;16.922;2023-03-08T01:16:36;10.60;;;5.35;;
76667;SDS011;65585;51.166;16.922;2023-03-08T01:19:03;9.23;;;5.10;;
76667;SDS011;65585;51.166;16.922;2023-03-08T01:21:30;8.45;;;4.30;;
76667;SDS011;65585;51.166;16.922;2023-03-08T01:23:58;7.78;;;4.20;;
76667;SDS011;65585;51.166;16.922;2023-03-08T01:26:25;8.27;;;4.72;;
76667;SDS011;65585;51.166;16.922;2023-03-08T01:28:52;8.10;;;3.75;;
76667;SDS011;65585;51.166;16.922;2023-03-08T01:31:22;7.50;;;4.28;;
76667;SDS011;65585;51.166;16.922;2023-03-08T01:33:50;7.05;;;4.22;;
76667;SDS011;65585;51.166;16.922;2023-03-08T01:36:19;7.57;;;4.10;;
76667;SDS011;65585;51.166;16.922;2023-03-08T01:38:47;10.18;;;5.32;;
76667;SDS011;65585;51.166;16.922;2023-03-08T01:41:18;9.07;;;4.45;;
76667;SDS011;65585;51.166;16.922;2023-03-08T01:43:46;7.72;;;4.35;;
76667;SDS011;65585;51.166;16.922;2023-03-08T01:46:34;8.75;;;5.00;;
76667;SDS011;65585;51.166;16.922;2023-03-08T01:49:04;7.72;;;4.95;;
76667;SDS011;65585;51.166;16.922;2023-03-08T01:51:51;9.77;;;5.25;;
76667;SDS011;65585;51.166;16.922;2023-03-08T01:54:24;7.10;;;4.10;;
76667;SDS011;65585;51.166;16.922;2023-03-08T01:56:52;9.95;;;5.25;;
76667;SDS011;65585;51.166;16.922;2023-03-08T01:59:21;7.22;;;4.07;;
76667;SDS011;65585;51.166;16.922;2023-03-08T02:01:47;8.27;;;4.07;;
76667;SDS011;65585;51.166;16.922;2023-03-08T02:06:42;6.43;;;3.47;;
76667;SDS011;65585;51.166;16.922;2023-03-08T02:09:09;4.75;;;3.10;;
76667;SDS011;65585;51.166;16.922;2023-03-08T02:11:35;4.93;;;2.95;;
76667;SDS011;65585;51.166;16.922;2023-03-08T02:14:07;6.50;;;2.50;;
76667;SDS011;65585;51.166;16.922;2023-03-08T02:16:35;4.95;;;3.13;;
76667;SDS011;65585;51.166;16.922;2023-03-08T02:19:04;6.13;;;2.83;;
76667;SDS011;65585;51.166;16.922;2023-03-08T02:21:37;5.18;;;3.15;;
76667;SDS011;65585;51.166;16.922;2023-03-08T02:24:19;10.30;;;2.90;;
76667;SDS011;65585;51.166;16.922;2023-03-08T02:26:49;4.07;;;2.03;;
76667;SDS011;65585;51.166;16.922;2023-03-08T02:29:17;4.20;;;2.75;;
76667;SDS011;65585;51.166;16.922;2023-03-08T02:31:46;4.28;;;2.58;;
76667;SDS011;65585;51.166;16.922;2023-03-08T02:34:13;9.63;;;3.30;;
76667;SDS011;65585;51.166;16.922;2023-03-08T02:36:39;4.68;;;3.50;;
76667;SDS011;65585;51.166;16.922;2023-03-08T02:39:10;7.13;;;2.63;;
76667;SDS011;65585;51.166;16.922;2023-03-08T02:41:36;5.47;;;3.03;;
76667;SDS011;65585;51.166;16.922;2023-03-08T02:44:03;4.97;;;3.15;;
76667;SDS011;65585;51.166;16.922;2023-03-08T02:46:36;5.55;;;2.80;;
76667;SDS011;65585;51.166;16.922;2023-03-08T02:49:05;5.32;;;3.05;;
76667;SDS011;65585;51.166;16.922;2023-03-08T02:51:40;7.32;;;3.22;;
76667;SDS011;65585;51.166;16.922;2023-03-08T02:54:07;6.63;;;2.90;;
76667;SDS011;65585;51.166;16.922;2023-03-08T02:56:36;4.97;;;3.28;;
76667;SDS011;65585;51.166;16.922;2023-03-08T02:59:10;6.03;;;3.08;;
76667;SDS011;65585;51.166;16.922;2023-03-08T03:01:36;3.78;;;2.92;;
76667;SDS011;65585;51.166;16.922;2023-03-08T03:04:06;5.07;;;2.88;;
76667;SDS011;65585;51.166;16.922;2023-03-08T03:06:39;5.03;;;3.05;;
76667;SDS011;65585;51.166;16.922;2023-03-08T03:09:09;6.10;;;3.53;;
76667;SDS011;65585;51.166;16.922;2023-03-08T03:11:42;3.97;;;2.70;;
76667;SDS011;65585;51.166;16.922;2023-03-08T03:14:12;5.88;;;2.35;;
76667;SDS011;65585;51.166;16.922;2023-03-08T03:16:40;4.70;;;3.00;;
76667;SDS011;65585;51.166;16.922;2023-03-08T03:19:08;5.22;;;2.80;;
76667;SDS011;65585;51.166;16.922;2023-03-08T03:21:38;5.13;;;2.90;;
76667;SDS011;65585;51.166;16.922;2023-03-08T03:24:06;5.22;;;2.80;;
76667;SDS011;65585;51.166;16.922;2023-03-08T03:26:32;5.38;;;2.70;;
76667;SDS011;65585;51.166;16.922;2023-03-08T03:29:01;6.60;;;2.95;;
76667;SDS011;65585;51.166;16.922;2023-03-08T03:31:27;9.77;;;3.13;;
76667;SDS011;65585;51.166;16.922;2023-03-08T03:33:54;5.72;;;3.13;;
76667;SDS011;65585;51.166;16.922;2023-03-08T03:36:20;9.05;;;3.40;;
76667;SDS011;65585;51.166;16.922;2023-03-08T03:38:48;6.28;;;3.10;;
76667;SDS011;65585;51.166;16.922;2023-03-08T03:41:15;5.20;;;2.42;;
76667;SDS011;65585;51.166;16.922;2023-03-08T03:43:43;5.00;;;3.10;;
76667;SDS011;65585;51.166;16.922;2023-03-08T03:46:11;4.97;;;3.20;;
76667;SDS011;65585;51.166;16.922;2023-03-08T03:48:46;4.55;;;2.53;;
76667;SDS011;65585;51.166;16.922;2023-03-08T03:51:13;5.05;;;2.70;;
76667;SDS011;65585;51.166;16.922;2023-03-08T03:53:43;5.07;;;2.63;;
76667;SDS011;65585;51.166;16.922;2023-03-08T03:56:14;5.55;;;3.05;;
76667;SDS011;65585;51.166;16.922;2023-03-08T03:58:43;6.75;;;2.92;;
76667;SDS011;65585;51.166;16.922;2023-03-08T04:01:19;6.68;;;2.95;;
76667;SDS011;65585;51.166;16.922;2023-03-08T04:03:50;5.00;;;2.63;;
76667;SDS011;65585;51.166;16.922;2023-03-08T04:06:24;4.60;;;2.80;;
76667;SDS011;65585;51.166;16.922;2023-03-08T04:08:53;4.85;;;3.17;;
76667;SDS011;65585;51.166;16.922;2023-03-08T04:11:22;7.43;;;2.65;;
76667;SDS011;65585;51.166;16.922;2023-03-08T04:13:54;8.48;;;3.25;;
76667;SDS011;65585;51.166;16.922;2023-03-08T04:16:21;5.78;;;3.00;;
76667;SDS011;65585;51.166;16.922;2023-03-08T04:18:55;6.50;;;3.10;;
76667;SDS011;65585;51.166;16.922;2023-03-08T04:21:23;4.03;;;2.13;;
76667;SDS011;65585;51.166;16.922;2023-03-08T04:23:50;3.97;;;2.40;;
76667;SDS011;65585;51.166;16.922;2023-03-08T04:26:17;5.18;;;2.90;;
76667;SDS011;65585;51.166;16.922;2023-03-08T04:28:43;5.72;;;3.13;;
76667;SDS011;65585;51.166;16.922;2023-03-08T04:31:13;6.00;;;3.10;;
76667;SDS011;65585;51.166;16.922;2023-03-08T04:33:44;5.25;;;2.90;;
76667;SDS011;65585;51.166;16.922;2023-03-08T04:36:11;7.53;;;3.28;;
76667;SDS011;65585;51.166;16.922;2023-03-08T04:38:38;6.80;;;3.05;;
76667;SDS011;65585;51.166;16.922;2023-03-08T04:41:05;5.70;;;3.72;;
76667;SDS011;65585;51.166;16.922;2023-03-08T04:43:47;6.82;;;3.60;;
76667;SDS011;65585;51.166;16.922;2023-03-08T04:46:19;5.22;;;3.45;;
76667;SDS011;65585;51.166;16.922;2023-03-08T04:48:49;5.85;;;3.05;;
76667;SDS011;65585;51.166;16.922;2023-03-08T04:51:21;6.40;;;3.70;;
76667;SDS011;65585;51.166;16.922;2023-03-08T04:53:49;10.18;;;3.85;;
76667;SDS011;65585;51.166;16.922;2023-03-08T04:56:16;9.55;;;4.20;;
76667;SDS011;65585;51.166;16.922;2023-03-08T04:58:43;14.38;;;4.38;;
76667;SDS011;65585;51.166;16.922;2023-03-08T05:01:14;6.97;;;4.65;;
76667;SDS011;65585;51.166;16.922;2023-03-08T05:03:42;7.40;;;3.90;;
76667;SDS011;65585;51.166;16.922;2023-03-08T05:06:10;7.32;;;3.95;;
76667;SDS011;65585;51.166;16.922;2023-03-08T05:08:40;8.57;;;4.85;;
76667;SDS011;65585;51.166;16.922;2023-03-08T05:11:09;11.05;;;4.90;;
76667;SDS011;65585;51.166;16.922;2023-03-08T05:13:36;9.88;;;4.97;;
76667;SDS011;65585;51.166;16.922;2023-03-08T05:16:04;10.98;;;4.93;;
76667;SDS011;65585;51.166;16.922;2023-03-08T05:18:35;9.45;;;4.55;;
76667;SDS011;65585;51.166;16.922;2023-03-08T05:21:05;8.82;;;4.82;;
76667;SDS011;65585;51.166;16.922;2023-03-08T05:23:35;11.05;;;5.15;;
76667;SDS011;65585;51.166;16.922;2023-03-08T05:26:05;8.10;;;5.03;;
76667;SDS011;65585;51.166;16.922;2023-03-08T05:28:35;8.55;;;5.00;;
76667;SDS011;65585;51.166;16.922;2023-03-08T05:31:03;6.15;;;4.47;;
76667;SDS011;65585;51.166;16.922;2023-03-08T05:33:34;8.02;;;4.82;;
76667;SDS011;65585;51.166;16.922;2023-03-08T05:36:01;7.97;;;4.35;;
76667;SDS011;65585;51.166;16.922;2023-03-08T05:38:28;10.25;;;4.60;;
76667;SDS011;65585;51.166;16.922;2023-03-08T05:41:04;11.55;;;4.88;;
76667;SDS011;65585;51.166;16.922;2023-03-08T05:43:47;8.05;;;4.47;;
76667;SDS011;65585;51.166;16.922;2023-03-08T05:46:17;7.55;;;4.00;;
76667;SDS011;65585;51.166;16.922;2023-03-08T05:48:44;6.20;;;4.38;;
76667;SDS011;65585;51.166;16.922;2023-03-08T05:51:15;12.25;;;4.97;;
76667;SDS011;65585;51.166;16.922;2023-03-08T05:53:43;6.40;;;4.15;;
76667;SDS011;65585;51.166;16.922;2023-03-08T05:56:13;6.45;;;4.03;;
76667;SDS011;65585;51.166;16.922;2023-03-08T05:58:40;6.57;;;3.75;;
76667;SDS011;65585;51.166;16.922;2023-03-08T06:01:08;7.82;;;4.00;;
76667;SDS011;65585;51.166;16.922;2023-03-08T06:03:35;7.13;;;3.47;;
76667;SDS011;65585;51.166;16.922;2023-03-08T06:06:04;7.25;;;3.67;;
76667;SDS011;65585;51.166;16.922;2023-03-08T06:08:32;7.55;;;4.07;;
76667;SDS011;65585;51.166;16.922;2023-03-08T06:10:59;6.50;;;3.80;;
76667;SDS011;65585;51.166;16.922;2023-03-08T06:13:26;8.48;;;5.05;;
76667;SDS011;65585;51.166;16.922;2023-03-08T06:15:53;7.35;;;4.20;;
76667;SDS011;65585;51.166;16.922;2023-03-08T06:18:22;6.40;;;3.10;;
76667;SDS011;65585;51.166;16.922;2023-03-08T06:21:01;7.05;;;3.70;;
76667;SDS011;65585;51.166;16.922;2023-03-08T06:23:30;5.82;;;3.70;;
76667;SDS011;65585;51.166;16.922;2023-03-08T06:25:57;6.05;;;3.50;;
76667;SDS011;65585;51.166;16.922;2023-03-08T06:28:24;8.07;;;3.33;;
76667;SDS011;65585;51.166;16.922;2023-03-08T06:30:51;6.15;;;3.70;;
76667;SDS011;65585;51.166;16.922;2023-03-08T06:33:20;8.80;;;3.75;;
76667;SDS011;65585;51.166;16.922;2023-03-08T06:38:20;7.45;;;3.58;;
76667;SDS011;65585;51.166;16.922;2023-03-08T06:40:46;7.35;;;3.45;;
76667;SDS011;65585;51.166;16.922;2023-03-08T06:43:13;5.88;;;3.75;;
76667;SDS011;65585;51.166;16.922;2023-03-08T06:45:39;10.93;;;3.90;;
76667;SDS011;65585;51.166;16.922;2023-03-08T06:56:05;8.63;;;3.70;;
76667;SDS011;65585;51.166;16.922;2023-03-08T06:58:33;6.40;;;3.30;;
76667;SDS011;65585;51.166;16.922;2023-03-08T07:01:01;9.45;;;3.83;;
76667;SDS011;65585;51.166;16.922;2023-03-08T07:03:29;8.15;;;3.92;;
76667;SDS011;65585;51.166;16.922;2023-03-08T07:05:58;6.43;;;4.15;;
76667;SDS011;65585;51.166;16.922;2023-03-08T07:08:26;8.80;;;3.40;;
76667;SDS011;65585;51.166;16.922;2023-03-08T07:10:52;7.85;;;4.38;;
76667;SDS011;65585;51.166;16.922;2023-03-08T07:13:21;7.05;;;3.67;;
76667;SDS011;65585;51.166;16.922;2023-03-08T07:15:48;9.20;;;3.80;;
76667;SDS011;65585;51.166;16.922;2023-03-08T07:18:16;9.95;;;5.18;;
76667;SDS011;65585;51.166;16.922;2023-03-08T07:20:42;13.07;;;5.78;;
76667;SDS011;65585;51.166;16.922;2023-03-08T07:23:09;9.60;;;5.10;;
76667;SDS011;65585;51.166;16.922;2023-03-08T07:25:37;11.48;;;5.65;;
76667;SDS011;65585;51.166;16.922;2023-03-08T07:28:05;10.23;;;5.68;;
76667;SDS011;65585;51.166;16.922;2023-03-08T07:38:16;8.50;;;5.05;;
76667;SDS011;65585;51.166;16.922;2023-03-08T07:40:43;9.63;;;5.25;;
76667;SDS011;65585;51.166;16.922;2023-03-08T07:43:09;10.93;;;5.25;;
76667;SDS011;65585;51.166;16.922;2023-03-08T07:45:36;7.63;;;5.53;;
76667;SDS011;65585;51.166;16.922;2023-03-08T07:48:06;9.38;;;4.68;;
76667;SDS011;65585;51.166;16.922;2023-03-08T07:50:33;8.45;;;5.68;;
76667;SDS011;65585;51.166;16.922;2023-03-08T07:52:59;9.73;;;5.43;;
76667;SDS011;65585;51.166;16.922;2023-03-08T07:55:26;10.02;;;6.03;;
76667;SDS011;65585;51.166;16.922;2023-03-08T07:57:52;7.60;;;5.57;;
76667;SDS011;65585;51.166;16.922;2023-03-08T08:00:19;7.97;;;4.65;;
76667;SDS011;65585;51.166;16.922;2023-03-08T08:02:46;9.80;;;4.32;;
76667;SDS011;65585;51.166;16.922;2023-03-08T08:15:35;9.20;;;4.53;;
76667;SDS011;65585;51.166;16.922;2023-03-08T08:18:01;9.63;;;4.50;;
76667;SDS011;65585;51.166;16.922;2023-03-08T08:20:29;9.25;;;4.80;;
76667;SDS011;65585;51.166;16.922;2023-03-08T08:22:55;9.25;;;5.07;;
76667;SDS011;65585;51.166;16.922;2023-03-08T08:25:22;12.00;;;5.35;;
76667;SDS011;65585;51.166;16.922;2023-03-08T08:27:48;11.45;;;5.30;;
76667;SDS011;65585;51.166;16.922;2023-03-08T08:30:16;12.15;;;5.30;;
76667;SDS011;65585;51.166;16.922;2023-03-08T08:32:42;9.38;;;5.70;;
76667;SDS011;65585;51.166;16.922;2023-03-08T08:35:08;8.25;;;4.90;;
76667;SDS011;65585;51.166;16.922;2023-03-08T08:37:34;9.30;;;5.30;;
76667;SDS011;65585;51.166;16.922;2023-03-08T08:40:01;10.70;;;5.45;;
76667;SDS011;65585;51.166;16.922;2023-03-08T08:42:28;14.55;;;4.40;;
76667;SDS011;65585;51.166;16.922;2023-03-08T08:55:15;6.65;;;4.93;;
76667;SDS011;65585;51.166;16.922;2023-03-08T08:57:41;10.25;;;4.85;;
76667;SDS011;65585;51.166;16.922;2023-03-08T09:00:08;5.53;;;3.80;;
76667;SDS011;65585;51.166;16.922;2023-03-08T09:02:35;9.07;;;4.13;;
76667;SDS011;65585;51.166;16.922;2023-03-08T09:05:01;6.25;;;4.20;;
76667;SDS011;65585;51.166;16.922;2023-03-08T09:07:28;8.70;;;4.75;;
76667;SDS011;65585;51.166;16.922;2023-03-08T09:09:54;9.30;;;4.90;;
76667;SDS011;65585;51.166;16.922;2023-03-08T09:12:20;10.65;;;4.68;;
76667;SDS011;65585;51.166;16.922;2023-03-08T09:22:32;9.30;;;4.35;;
76667;SDS011;65585;51.166;16.922;2023-03-08T09:24:58;9.32;;;4.78;;
76667;SDS011;65585;51.166;16.922;2023-03-08T09:27:24;12.02;;;5.32;;
76667;SDS011;65585;51.166;16.922;2023-03-08T09:29:51;10.45;;;5.80;;
76667;SDS011;65585;51.166;16.922;2023-03-08T09:32:17;9.13;;;5.07;;
76667;SDS011;65585;51.166;16.922;2023-03-08T09:34:43;7.60;;;5.18;;
76667;SDS011;65585;51.166;16.922;2023-03-08T09:37:12;8.93;;;5.65;;
76667;SDS011;65585;51.166;16.922;2023-03-08T09:39:39;8.52;;;5.60;;
76667;SDS011;65585;51.166;16.922;2023-03-08T09:49:51;10.73;;;6.00;;
76667;SDS011;65585;51.166;16.922;2023-03-08T09:54:49;10.50;;;5.85;;
76667;SDS011;65585;51.166;16.922;2023-03-08T09:57:23;9.55;;;4.65;;
76667;SDS011;65585;51.166;16.922;2023-03-08T09:59:52;8.55;;;4.93;;
76667;SDS011;65585;51.166;16.922;2023-03-08T10:04:56;8.15;;;4.70;;
76667;SDS011;65585;51.166;16.922;2023-03-08T10:18:12;7.38;;;4.13;;
76667;SDS011;65585;51.166;16.922;2023-03-08T10:20:43;7.55;;;4.15;;
76667;SDS011;65585;51.166;16.922;2023-03-08T10:23:15;6.40;;;4.35;;
76667;SDS011;65585;51.166;16.922;2023-03-08T10:25:46;7.78;;;4.35;;
76667;SDS011;65585;51.166;16.922;2023-03-08T10:28:21;10.15;;;4.60;;
76667;SDS011;65585;51.166;16.922;2023-03-08T10:30:53;5.88;;;4.03;;
76667;SDS011;65585;51.166;16.922;2023-03-08T10:41:12;5.22;;;3.65;;
76667;SDS011;65585;51.166;16.922;2023-03-08T10:43:45;6.40;;;4.03;;
76667;SDS011;65585;51.166;16.922;2023-03-08T10:46:16;8.35;;;4.35;;
76667;SDS011;65585;51.166;16.922;2023-03-08T10:48:47;11.82;;;4.63;;
76667;SDS011;65585;51.166;16.922;2023-03-08T10:51:20;8.57;;;5.35;;
76667;SDS011;65585;51.166;16.922;2023-03-08T10:53:55;7.68;;;4.85;;
76667;SDS011;65585;51.166;16.922;2023-03-08T10:56:24;8.07;;;5.82;;
76667;SDS011;65585;51.166;16.922;2023-03-08T10:58:53;10.05;;;6.13;;
76667;SDS011;65585;51.166;16.922;2023-03-08T11:11:41;8.27;;;5.45;;
76667;SDS011;65585;51.166;16.922;2023-03-08T11:14:08;10.38;;;6.35;;
76667;SDS011;65585;51.166;16.922;2023-03-08T11:24:42;7.72;;;5.38;;
76667;SDS011;65585;51.166;16.922;2023-03-08T11:43:30;9.13;;;6.47;;
76667;SDS011;65585;51.166;16.922;2023-03-08T11:51:09;10.45;;;6.22;;
76667;SDS011;65585;51.166;16.922;2023-03-08T11:56:27;12.13;;;7.13;;
76667;SDS011;65585;51.166;16.922;2023-03-08T11:59:04;10.32;;;6.55;;
76667;SDS011;65585;51.166;16.922;2023-03-08T12:14:54;7.60;;;5.60;;
76667;SDS011;65585;51.166;16.922;2023-03-08T12:17:27;8.07;;;5.38;;
76667;SDS011;65585;51.166;16.922;2023-03-08T12:19:57;12.82;;;6.55;;
76667;SDS011;65585;51.166;16.922;2023-03-08T12:25:28;10.63;;;6.50;;
76667;SDS011;65585;51.166;16.922;2023-03-08T12:36:15;12.55;;;6.35;;
76667;SDS011;65585;51.166;16.922;2023-03-08T12:38:39;9.32;;;5.70;;
76667;SDS011;65585;51.166;16.922;2023-03-08T12:41:20;10.60;;;5.95;;
76667;SDS011;65585;51.166;16.922;2023-03-08T12:44:00;7.47;;;5.38;;
76667;SDS011;65585;51.166;16.922;2023-03-08T12:49:24;9.10;;;5.97;;
76667;SDS011;65585;51.166;16.922;2023-03-08T13:05:33;8.95;;;5.43;;
76667;SDS011;65585;51.166;16.922;2023-03-08T13:10:52;13.23;;;6.43;;
76667;SDS011;65585;51.166;16.922;2023-03-08T13:16:27;13.85;;;6.95;;
76667;SDS011;65585;51.166;16.922;2023-03-08T13:19:16;11.82;;;5.93;;
76667;SDS011;65585;51.166;16.922;2023-03-08T13:21:54;12.30;;;6.60;;
76667;SDS011;65585;51.166;16.922;2023-03-08T13:34:56;9.07;;;6.15;;
76667;SDS011;65585;51.166;16.922;2023-03-08T13:37:25;10.35;;;5.80;;
76667;SDS011;65585;51.166;16.922;2023-03-08T13:39:53;11.95;;;6.40;;
76667;SDS011;65585;51.166;16.922;2023-03-08T13:42:21;11.73;;;7.20;;
76667;SDS011;65585;51.166;16.922;2023-03-08T13:44:50;10.32;;;6.22;;
76667;SDS011;65585;51.166;16.922;2023-03-08T13:47:21;9.50;;;5.72;;
76667;SDS011;65585;51.166;16.922;2023-03-08T13:49:49;14.38;;;6.47;;
76667;SDS011;65585;51.166;16.922;2023-03-08T13:52:27;12.30;;;7.32;;
76667;SDS011;65585;51.166;16.922;2023-03-08T13:54:56;14.48;;;7.68;;
76667;SDS011;65585;51.166;16.922;2023-03-08T14:05:27;13.18;;;7.00;;
76667;SDS011;65585;51.166;16.922;2023-03-08T14:10:38;11.50;;;8.05;;
76667;SDS011;65585;51.166;16.922;2023-03-08T14:13:13;15.05;;;7.47;;
76667;SDS011;65585;51.166;16.922;2023-03-08T14:15:47;18.05;;;9.25;;
76667;SDS011;65585;51.166;16.922;2023-03-08T14:18:20;11.35;;;7.65;;
76667;SDS011;65585;51.166;16.922;2023-03-08T14:23:53;14.60;;;8.07;;
76667;SDS011;65585;51.166;16.922;2023-03-08T14:39:22;22.75;;;12.15;;
76667;SDS011;65585;51.166;16.922;2023-03-08T14:41:50;22.80;;;12.35;;
76667;SDS011;65585;51.166;16.922;2023-03-08T14:44:21;16.23;;;9.65;;
76667;SDS011;65585;51.166;16.922;2023-03-08T14:46:50;15.75;;;9.48;;
76667;SDS011;65585;51.166;16.922;2023-03-08T14:49:26;16.55;;;11.13;;
76667;SDS011;65585;51.166;16.922;2023-03-08T14:51:54;18.25;;;11.77;;
76667;SDS011;65585;51.166;16.922;2023-03-08T14:54:21;25.63;;;14.20;;
76667;SDS011;65585;51.166;16.922;2023-03-08T14:59:20;22.23;;;11.82;;
76667;SDS011;65585;51.166;16.922;2023-03-08T15:01:48;24.63;;;12.63;;
76667;SDS011;65585;51.166;16.922;2023-03-08T15:11:59;17.60;;;11.13;;
76667;SDS011;65585;51.166;16.922;2023-03-08T15:14:26;22.02;;;13.70;;
76667;SDS011;65585;51.166;16.922;2023-03-08T15:19:21;21.63;;;10.77;;
76667;SDS011;65585;51.166;16.922;2023-03-08T15:21:47;20.50;;;12.32;;
76667;SDS011;65585;51.166;16.922;2023-03-08T15:24:14;21.05;;;12.23;;
76667;SDS011;65585;51.166;16.922;2023-03-08T15:26:44;23.65;;;13.40;;
76667;SDS011;65585;51.166;16.922;2023-03-08T15:29:27;25.05;;;13.13;;
76667;SDS011;65585;51.166;16.922;2023-03-08T15:31:54;23.33;;;13.65;;
76667;SDS011;65585;51.166;16.922;2023-03-08T15:34:21;21.58;;;12.68;;
76667;SDS011;65585;51.166;16.922;2023-03-08T15:36:47;25.02;;;12.82;;
76667;SDS011;65585;51.166;16.922;2023-03-08T15:47:00;32.45;;;18.13;;
76667;SDS011;65585;51.166;16.922;2023-03-08T15:49:26;25.23;;;14.95;;
76667;SDS011;65585;51.166;16.922;2023-03-08T15:51:52;26.08;;;15.73;;
76667;SDS011;65585;51.166;16.922;2023-03-08T15:54:18;25.27;;;13.55;;
76667;SDS011;65585;51.166;16.922;2023-03-08T15:56:44;23.10;;;12.18;;
76667;SDS011;65585;51.166;16.922;2023-03-08T15:59:11;23.52;;;11.77;;
76667;SDS011;65585;51.166;16.922;2023-03-08T16:01:36;25.65;;;14.52;;
76667;SDS011;65585;51.166;16.922;2023-03-08T16:04:03;23.08;;;12.35;;
76667;SDS011;65585;51.166;16.922;2023-03-08T16:06:29;22.63;;;13.63;;
76667;SDS011;65585;51.166;16.922;2023-03-08T16:08:55;23.02;;;12.30;;
76667;SDS011;65585;51.166;16.922;2023-03-08T16:11:22;20.95;;;12.95;;
76667;SDS011;65585;51.166;16.922;2023-03-08T16:24:04;21.60;;;11.57;;
76667;SDS011;65585;51.166;16.922;2023-03-08T16:26:30;24.60;;;12.50;;
76667;SDS011;65585;51.166;16.922;2023-03-08T16:28:56;24.90;;;13.82;;
76667;SDS011;65585;51.166;16.922;2023-03-08T16:31:23;25.25;;;12.88;;
76667;SDS011;65585;51.166;16.922;2023-03-08T16:33:49;18.65;;;10.43;;
76667;SDS011;65585;51.166;16.922;2023-03-08T16:36:15;21.70;;;13.68;;
76667;SDS011;65585;51.166;16.922;2023-03-08T16:38:41;26.38;;;11.82;;
76667;SDS011;65585;51.166;16.922;2023-03-08T16:41:07;24.88;;;12.38;;
76667;SDS011;65585;51.166;16.922;2023-03-08T16:43:34;22.48;;;12.52;;
76667;SDS011;65585;51.166;16.922;2023-03-08T16:46:01;20.60;;;11.30;;
76667;SDS011;65585;51.166;16.922;2023-03-08T16:48:27;20.30;;;11.35;;
76667;SDS011;65585;51.166;16.922;2023-03-08T16:50:57;21.73;;;11.82;;
76667;SDS011;65585;51.166;16.922;2023-03-08T16:53:24;23.00;;;11.35;;
76667;SDS011;65585;51.166;16.922;2023-03-08T17:03:37;21.92;;;12.15;;
76667;SDS011;65585;51.166;16.922;2023-03-08T17:06:06;20.88;;;11.27;;
76667;SDS011;65585;51.166;16.922;2023-03-08T17:08:36;24.88;;;11.98;;
76667;SDS011;65585;51.166;16.922;2023-03-08T17:11:03;18.77;;;11.48;;
76667;SDS011;65585;51.166;16.922;2023-03-08T17:13:31;28.80;;;14.05;;
76667;SDS011;65585;51.166;16.922;2023-03-08T17:15:57;30.95;;;14.98;;
76667;SDS011;65585;51.166;16.922;2023-03-08T17:18:24;26.83;;;14.32;;
76667;SDS011;65585;51.166;16.922;2023-03-08T17:20:50;30.80;;;14.30;;
76667;SDS011;65585;51.166;16.922;2023-03-08T17:23:18;30.48;;;15.68;;
76667;SDS011;65585;51.166;16.922;2023-03-08T17:25:45;25.65;;;13.90;;
76667;SDS011;65585;51.166;16.922;2023-03-08T17:28:11;25.13;;;13.02;;
76667;SDS011;65585;51.166;16.922;2023-03-08T17:30:38;26.65;;;14.60;;
76667;SDS011;65585;51.166;16.922;2023-03-08T17:40:51;22.75;;;14.23;;
76667;SDS011;65585;51.166;16.922;2023-03-08T17:43:17;30.25;;;15.05;;
76667;SDS011;65585;51.166;16.922;2023-03-08T17:45:45;33.72;;;16.77;;
76667;SDS011;65585;51.166;16.922;2023-03-08T17:48:21;22.77;;;13.15;;
76667;SDS011;65585;51.166;16.922;2023-03-08T17:50:47;28.05;;;14.93;;
76667;SDS011;65585;51.166;16.922;2023-03-08T17:53:18;32.35;;;14.73;;
76667;SDS011;65585;51.166;16.922;2023-03-08T17:55:44;29.73;;;14.38;;
76667;SDS011;65585;51.166;16.922;2023-03-08T17:58:11;26.77;;;14.18;;
76667;SDS011;65585;51.166;16.922;2023-03-08T18:00:37;27.88;;;13.48;;
76667;SDS011;65585;51.166;16.922;2023-03-08T18:03:03;24.98;;;13.77;;
76667;SDS011;65585;51.166;16.922;2023-03-08T18:05:29;25.20;;;13.05;;
76667;SDS011;65585;51.166;16.922;2023-03-08T18:07:56;28.63;;;15.77;;
76667;SDS011;65585;51.166;16.922;2023-03-08T18:18:07;25.63;;;12.85;;
76667;SDS011;65585;51.166;16.922;2023-03-08T18:20:34;27.08;;;15.32;;
76667;SDS011;65585;51.166;16.922;2023-03-08T18:23:00;25.38;;;14.05;;
76667;SDS011;65585;51.166;16.922;2023-03-08T18:25:28;26.95;;;14.23;;
76667;SDS011;65585;51.166;16.922;2023-03-08T18:27:54;25.05;;;13.95;;
76667;SDS011;65585;51.166;16.922;2023-03-08T18:30:21;27.73;;;14.50;;
76667;SDS011;65585;51.166;16.922;2023-03-08T18:32:47;26.52;;;14.70;;
76667;SDS011;65585;51.166;16.922;2023-03-08T18:35:14;29.58;;;14.63;;
76667;SDS011;65585;51.166;16.922;2023-03-08T18:37:41;30.15;;;15.45;;
76667;SDS011;65585;51.166;16.922;2023-03-08T18:40:08;25.88;;;14.93;;
76667;SDS011;65585;51.166;16.922;2023-03-08T18:42:39;28.15;;;14.15;;
76667;SDS011;65585;51.166;16.922;2023-03-08T18:45:07;24.38;;;13.27;;
76667;SDS011;65585;51.166;16.922;2023-03-08T18:47:35;25.92;;;14.05;;
76667;SDS011;65585;51.166;16.922;2023-03-08T19:00:22;30.38;;;16.70;;
76667;SDS011;65585;51.166;16.922;2023-03-08T19:02:49;33.60;;;16.13;;
76667;SDS011;65585;51.166;16.922;2023-03-08T19:05:15;27.50;;;17.45;;
76667;SDS011;65585;51.166;16.922;2023-03-08T19:07:42;29.95;;;16.55;;
76667;SDS011;65585;51.166;16.922;2023-03-08T19:10:08;30.17;;;15.88;;